This is the latest recevied weather packets stored in our database for station/object KB2FWP. If no packets are shown the sender has not sent any weather packets the latest 1 day(s).
| Time | Temp. | Humidity | Pressure | Rain* | Wind** | Luminosity | Snow |
|---|---|---|---|---|---|---|---|
| 1836274692 | 19.44° C | 74% | 1020.1 hPa | 0 mm | 0 m/s | - | - |
| 1778057145 | 12.78° C | 92% | 1012.1 hPa | 0 mm | 5.36 m/s, 171° | - | - |
| 1778056246 | 12.78° C | 92% | 1012.2 hPa | 0 mm | 5.36 m/s, 242° | - | - |
| 1778055349 | 12.78° C | 92% | 1012.1 hPa | 0 mm | 6.26 m/s, 200° | - | - |
| 1778054441 | 12.78° C | 91% | 1012.2 hPa | 0 mm | 6.71 m/s, 197° | - | - |
| 1778053539 | 12.78° C | 91% | 1012.3 hPa | 0 mm | 5.36 m/s, 175° | - | - |
| 1778052636 | 12.78° C | 91% | 1012.5 hPa | 0 mm | 5.36 m/s, 191° | - | - |
| 1778051744 | 12.78° C | 90% | 1012.6 hPa | 0 mm | 5.36 m/s, 210° | - | - |
| 1778050839 | 12.78° C | 90% | 1012.5 hPa | 0 mm | 5.36 m/s, 201° | - | - |
| 1778049946 | 12.78° C | 90% | 1012.5 hPa | 0 mm | 5.36 m/s, 221° | - | - |
| 1778049031 | 12.78° C | 90% | 1012.5 hPa | 0 mm | 4.92 m/s, 195° | - | - |
| 1778048135 | 13.33° C | 90% | 1012.6 hPa | 0 mm | 5.81 m/s, 239° | - | - |
| 1778047241 | 13.33° C | 89% | 1012.6 hPa | 0 mm | 5.81 m/s, 204° | - | - |
| 1778046335 | 13.33° C | 89% | 1012.7 hPa | 0 mm | 6.71 m/s, 250° | - | - |
| 1778045438 | 13.33° C | 88% | 1012.7 hPa | 0 mm | 6.71 m/s, 193° | - | - |
| 1778044523 | 13.33° C | 88% | 1012.8 hPa | 0 mm | 6.71 m/s, 244° | - | - |
| 1778043622 | 13.33° C | 88% | 1012.7 hPa | 0 mm | 5.36 m/s, 194° | - | - |
| 1778042722 | 13.33° C | 88% | 1012.7 hPa | 0 mm | 6.26 m/s, 243° | - | - |
| 1778041817 | 13.33° C | 88% | 1012.8 hPa | 0 mm | 6.26 m/s, 192° | - | - |
| 1778040914 | 13.33° C | 88% | 1012.8 hPa | 0 mm | 5.36 m/s, 210° | - | - |
| 1778040014 | 13.89° C | 87% | 1012.8 hPa | 0 mm | 5.36 m/s, 235° | - | - |
| 1778039111 | 13.89° C | 86% | 1012.8 hPa | 0 mm | 6.71 m/s, 212° | - | - |
| 1778038209 | 13.89° C | 86% | 1012.8 hPa | 0 mm | 6.71 m/s, 189° | - | - |
| 1778037313 | 13.89° C | 86% | 1012.7 hPa | 0 mm | 6.26 m/s, 171° | - | - |
| 1778036407 | 13.89° C | 86% | 1012.9 hPa | 0 mm | 5.81 m/s, 210° | - | - |
* Rain latest hour (hover to see other rain measurements)
** Current wind speed in m/s (hover to see current wind gust speed)